Time;durP1;ratioP1;P1;durP2;ratioP2;P2;SDS_P1;SDS_P2;PMS_P1;PMS_P2;Temp;Humidity;BMP_temperature;BMP_pressure;BME280_temperature;BME280_humidity;BME280_pressure;Samples;Min_cycle;Max_cycle;Signal;HPM_P1;HPM_P2
2023/07/02 00:02:04;;;;;;;;;;;;;;;21.11;33.65;95336.00;6246899;28;19921;-69
2023/07/02 00:05:06;;;;;;;;;;;;;;;21.29;33.08;95329.03;6228739;28;20395;-69
2023/07/02 00:08:07;;;;;;;;;;;;;;;21.18;33.03;95320.78;6246173;28;19921;-69
2023/07/02 00:11:12;;;;;;;;;;;;;;;21.01;33.35;95334.53;6246275;28;19917;-70
2023/07/02 00:14:18;;;;;;;;;;;;;;;20.99;33.12;95352.63;6246537;28;19921;-70
2023/07/02 00:17:22;;;;;;;;;;;;;;;21.16;33.10;95357.59;6246394;28;19921;-68
2023/07/02 00:20:23;;;;;;;;;;;;;;;21.32;32.67;95335.84;6245679;28;19963;-69
2023/07/02 00:23:24;;;;;;;;;;;;;;;21.20;32.56;95340.13;6228329;28;19925;-69
2023/07/02 00:26:26;;;;;;;;;;;;;;;21.20;32.06;95350.81;6228475;28;19943;-68
2023/07/02 00:29:27;;;;;;;;;;;;;;;21.56;30.85;95325.59;6245287;28;19921;-69
2023/07/02 00:32:32;;;;;;;;;;;;;;;21.80;30.41;95318.75;6246014;28;19921;-70
2023/07/02 00:35:36;;;;;;;;;;;;;;;21.96;30.20;95329.06;6246191;28;19920;-70
2023/07/02 00:38:47;;;;;;;;;;;;;;;22.01;30.25;95339.97;6245931;28;19921;-69
2023/07/02 00:41:48;;;;;;;;;;;;;;;22.04;30.40;95338.75;6245864;28;19921;-69
2023/07/02 00:44:52;;;;;;;;;;;;;;;22.00;30.43;95351.72;6245294;28;20398;-69
2023/07/02 00:47:54;;;;;;;;;;;;;;;22.08;30.42;95361.38;6227771;28;20401;-70
2023/07/02 00:50:58;;;;;;;;;;;;;;;22.01;30.89;95358.72;6245727;28;19924;-70
2023/07/02 00:54:01;;;;;;;;;;;;;;;22.07;30.96;95365.91;6245612;28;19921;-70
2023/07/02 00:57:03;;;;;;;;;;;;;;;22.05;31.61;95373.34;6227649;28;20390;-69
2023/07/02 01:00:07;;;;;;;;;;;;;;;21.84;31.98;95390.44;6245710;28;19921;-69
2023/07/02 01:03:11;;;;;;;;;;;;;;;22.10;34.21;95376.22;6228137;28;19925;-69
2023/07/02 01:06:12;;;;;;;;;;;;;;;22.03;36.12;95385.31;6244723;28;19920;-69
2023/07/02 01:09:14;;;;;;;;;;;;;;;22.12;37.52;95413.53;6245454;28;20401;-70
2023/07/02 01:12:18;;;;;;;;;;;;;;;22.06;38.22;95355.44;6245292;28;19921;-69
2023/07/02 01:15:23;;;;;;;;;;;;;;;22.02;39.53;95363.03;6245369;28;19921;-69
2023/07/02 01:18:26;;;;;;;;;;;;;;;22.01;40.73;95422.19;6210937;28;19944;-71
2023/07/02 01:21:27;;;;;;;;;;;;;;;21.93;42.69;95410.63;6245380;28;19921;-69
2023/07/02 01:24:28;;;;;;;;;;;;;;;21.92;44.36;95440.31;6244881;28;20414;-70
2023/07/02 01:27:32;;;;;;;;;;;;;;;21.69;46.04;95448.72;6245304;28;20442;-69
2023/07/02 01:30:35;;;;;;;;;;;;;;;21.54;47.39;95443.53;6245193;28;19929;-70
2023/07/02 01:33:36;;;;;;;;;;;;;;;21.44;48.16;95446.59;6244591;28;19920;-70
2023/07/02 01:36:39;;;;;;;;;;;;;;;21.32;48.45;95440.19;6213043;28;19940;-70
2023/07/02 01:39:43;;;;;;;;;;;;;;;21.29;49.32;95502.13;6231935;28;19921;-70
2023/07/02 01:42:46;;;;;;;;;;;;;;;21.29;49.77;95486.06;6232435;28;19921;-69
2023/07/02 01:45:47;;;;;;;;;;;;;;;21.16;50.58;95494.03;6249486;28;19921;-69
2023/07/02 01:48:50;;;;;;;;;;;;;;;21.16;51.64;95516.25;6250213;28;19921;-70
2023/07/02 01:51:52;;;;;;;;;;;;;;;20.52;55.12;95511.94;6231574;28;19920;-68
2023/07/02 01:54:53;;;;;;;;;;;;;;;19.84;60.16;95500.03;6249533;28;19921;-70
2023/07/02 01:57:57;;;;;;;;;;;;;;;19.18;62.81;95484.09;6249607;28;19921;-70
2023/07/02 02:00:58;;;;;;;;;;;;;;;18.95;64.33;95490.38;6249594;28;19921;-71
2023/07/02 02:04:01;;;;;;;;;;;;;;;18.68;65.05;95461.69;6249380;28;20410;-69
2023/07/02 02:07:04;;;;;;;;;;;;;;;18.60;65.77;95444.81;6249396;28;19921;-70
2023/07/02 02:10:06;;;;;;;;;;;;;;;18.65;65.73;95440.75;6248885;28;19924;-69
2023/07/02 02:13:09;;;;;;;;;;;;;;;18.62;65.46;95429.44;6231913;28;19921;-69
2023/07/02 02:16:10;;;;;;;;;;;;;;;18.76;65.61;95441.13;6231616;28;19956;-69
2023/07/02 02:19:12;;;;;;;;;;;;;;;19.17;64.40;95456.63;6248430;28;19921;-70
2023/07/02 02:22:19;;;;;;;;;;;;;;;19.19;63.88;95433.28;6231548;28;20774;-70
2023/07/02 02:25:22;;;;;;;;;;;;;;;19.24;63.84;95420.16;6248982;28;20306;-69
2023/07/02 02:28:23;;;;;;;;;;;;;;;19.26;64.19;95417.34;6248703;28;20338;-69
2023/07/02 02:31:29;;;;;;;;;;;;;;;19.33;63.77;95412.06;6248838;28;19924;-69
2023/07/02 02:34:30;;;;;;;;;;;;;;;19.32;63.99;95426.41;6231162;28;20303;-69
2023/07/02 02:37:38;;;;;;;;;;;;;;;19.41;63.39;95411.94;6248600;28;19921;-69
2023/07/02 02:40:42;;;;;;;;;;;;;;;19.46;62.36;95396.19;6248618;28;20291;-69
2023/07/02 02:43:45;;;;;;;;;;;;;;;19.61;61.56;95404.94;6247684;28;19921;-69
2023/07/02 02:46:49;;;;;;;;;;;;;;;19.76;60.17;95385.38;6248677;28;20314;-70
2023/07/02 02:49:52;;;;;;;;;;;;;;;19.84;59.76;95387.91;6230926;28;19916;-70
2023/07/02 02:52:53;;;;;;;;;;;;;;;19.87;59.33;95401.72;6248581;28;19921;-70
2023/07/02 02:55:57;;;;;;;;;;;;;;;19.82;58.49;95408.66;6248508;28;19917;-69
2023/07/02 02:59:01;;;;;;;;;;;;;;;19.95;57.72;95390.06;6248181;28;20063;-70
2023/07/02 03:02:02;;;;;;;;;;;;;;;19.81;58.44;95372.31;6230667;28;19916;-69
2023/07/02 03:05:04;;;;;;;;;;;;;;;19.53;59.66;95386.41;6248225;28;19921;-70
2023/07/02 03:08:07;;;;;;;;;;;;;;;19.06;62.56;95387.78;6247258;28;19920;-70
2023/07/02 03:11:08;;;;;;;;;;;;;;;18.73;63.20;95393.50;6229928;28;19928;-69
2023/07/02 03:14:12;;;;;;;;;;;;;;;18.45;63.73;95379.22;6248115;28;19927;-70
2023/07/02 03:17:13;;;;;;;;;;;;;;;18.47;63.96;95386.00;6229929;28;20449;-69
2023/07/02 03:20:16;;;;;;;;;;;;;;;18.69;63.65;95388.75;6246995;28;19921;-70
2023/07/02 03:23:20;;;;;;;;;;;;;;;18.96;63.05;95381.94;6247641;28;19921;-69
2023/07/02 03:26:23;;;;;;;;;;;;;;;19.44;61.17;95382.22;6230219;28;20329;-69
2023/07/02 03:29:27;;;;;;;;;;;;;;;19.68;60.56;95379.19;6247575;28;20184;-70
2023/07/02 03:32:28;;;;;;;;;;;;;;;19.83;60.14;95380.94;6229672;28;19943;-70
2023/07/02 03:35:32;;;;;;;;;;;;;;;19.69;60.61;95372.00;6247510;28;19921;-70
2023/07/02 03:38:37;;;;;;;;;;;;;;;19.77;60.44;95355.03;6247058;28;19921;-70
2023/07/02 03:41:38;;;;;;;;;;;;;;;20.03;59.50;95344.53;6246519;28;19927;-70
2023/07/02 03:44:41;;;;;;;;;;;;;;;20.33;58.90;95341.66;6246778;28;19921;-71
2023/07/02 03:47:42;;;;;;;;;;;;;;;20.47;58.54;95348.69;6246033;28;19925;-70
2023/07/02 03:50:46;;;;;;;;;;;;;;;20.34;59.14;95343.28;6246767;28;19924;-70
2023/07/02 03:53:47;;;;;;;;;;;;;;;20.51;59.00;95333.91;6246321;28;19927;-70
2023/07/02 03:56:51;;;;;;;;;;;;;;;20.37;59.03;95327.69;6229566;28;19917;-70
2023/07/02 03:59:53;;;;;;;;;;;;;;;20.55;58.72;95337.88;6245445;28;19921;-70
2023/07/02 04:02:56;;;;;;;;;;;;;;;20.52;58.70;95327.56;6246574;28;20048;-70
2023/07/02 04:05:57;;;;;;;;;;;;;;;20.70;58.69;95327.03;6228571;28;20429;-70
2023/07/02 04:09:04;;;;;;;;;;;;;;;20.84;58.56;95318.03;6229271;28;19921;-72
2023/07/02 04:12:05;;;;;;;;;;;;;;;20.99;57.68;95331.22;6246623;28;19924;-70
2023/07/02 04:15:06;;;;;;;;;;;;;;;20.89;57.79;95333.47;6246029;28;19928;-71
2023/07/02 04:18:12;;;;;;;;;;;;;;;21.04;57.44;95336.81;6246133;28;20015;-72
2023/07/02 04:21:15;;;;;;;;;;;;;;;21.29;56.74;95346.94;6246441;28;19943;-73
2023/07/02 04:24:17;;;;;;;;;;;;;;;21.38;56.71;95359.13;6245291;28;20302;-71
2023/07/02 04:27:21;;;;;;;;;;;;;;;21.53;56.32;95345.53;6229161;28;20472;-70
2023/07/02 04:30:25;;;;;;;;;;;;;;;21.65;54.97;95337.72;6228903;28;20405;-70
2023/07/02 04:33:35;;;;;;;;;;;;;;;21.51;53.88;95336.88;6245867;28;20011;-71
2023/07/02 04:36:39;;;;;;;;;;;;;;;20.75;55.96;95335.28;6246144;28;19936;-70
2023/07/02 04:39:40;;;;;;;;;;;;;;;20.85;55.57;95329.53;6228239;28;20047;-71
2023/07/02 04:42:47;;;;;;;;;;;;;;;20.79;55.34;95333.03;6246072;28;19925;-70
2023/07/02 04:45:48;;;;;;;;;;;;;;;21.03;54.83;95340.50;6227470;28;19982;-71
2023/07/02 04:48:52;;;;;;;;;;;;;;;21.43;54.17;95334.41;6228553;28;20318;-70
2023/07/02 04:51:53;;;;;;;;;;;;;;;22.09;52.55;95338.94;6244512;28;19927;-70
2023/07/02 04:54:57;;;;;;;;;;;;;;;22.72;51.05;95343.72;6245398;28;19932;-73
2023/07/02 04:58:01;;;;;;;;;;;;;;;23.28;49.71;95354.63;6245419;28;19921;-71
2023/07/02 05:01:05;;;;;;;;;;;;;;;23.39;49.31;95365.72;6245483;28;19921;-73
2023/07/02 05:04:09;;;;;;;;;;;;;;;23.06;50.40;95366.72;6244479;28;19921;-71
2023/07/02 05:07:15;;;;;;;;;;;;;;;22.85;51.08;95367.81;6245338;28;19925;-71
2023/07/02 05:10:19;;;;;;;;;;;;;;;22.64;51.54;95363.56;6244598;28;20075;-71
2023/07/02 05:13:25;;;;;;;;;;;;;;;22.23;52.57;95354.00;6245253;28;20382;-70
2023/07/02 05:16:26;;;;;;;;;;;;;;;22.16;52.95;95361.97;6227011;28;20058;-71
2023/07/02 05:19:30;;;;;;;;;;;;;;;22.00;53.44;95361.63;6245135;28;20386;-70
2023/07/02 05:22:31;;;;;;;;;;;;;;;21.73;54.15;95366.97;6245055;28;19920;-71
2023/07/02 05:25:33;;;;;;;;;;;;;;;21.58;54.37;95377.88;6245158;28;19921;-70
2023/07/02 05:28:35;;;;;;;;;;;;;;;21.67;54.33;95365.13;6244496;28;19921;-71
2023/07/02 05:31:42;;;;;;;;;;;;;;;21.76;54.32;95361.19;6245240;28;19920;-70
2023/07/02 05:34:45;;;;;;;;;;;;;;;21.96;53.92;95362.00;6244675;28;19968;-70
2023/07/02 05:37:48;;;;;;;;;;;;;;;22.34;53.33;95369.41;6244190;28;19921;-70
2023/07/02 05:40:52;;;;;;;;;;;;;;;22.75;52.75;95376.31;6245377;28;20371;-71
2023/07/02 05:43:53;;;;;;;;;;;;;;;23.06;52.45;95372.91;6244010;28;19936;-72
2023/07/02 05:46:56;;;;;;;;;;;;;;;22.98;52.68;95366.97;6244843;28;19925;-71
2023/07/02 05:50:03;;;;;;;;;;;;;;;23.00;52.46;95363.03;6242608;28;19917;-71
2023/07/02 05:53:09;;;;;;;;;;;;;;;23.11;52.50;95371.44;6242858;28;19921;-70
2023/07/02 05:56:13;;;;;;;;;;;;;;;22.91;52.79;95363.47;6244665;28;20397;-71
2023/07/02 05:59:19;;;;;;;;;;;;;;;22.67;53.23;95365.81;6244683;28;19920;-70
2023/07/02 06:02:20;;;;;;;;;;;;;;;22.49;53.70;95365.69;6244217;28;19921;-70
2023/07/02 06:05:24;;;;;;;;;;;;;;;22.31;54.57;95369.03;6244612;28;19928;-71
2023/07/02 06:08:30;;;;;;;;;;;;;;;22.46;54.40;95358.06;6244688;28;19921;-70
2023/07/02 06:11:31;;;;;;;;;;;;;;;22.28;54.44;95354.19;6244630;28;19928;-71
2023/07/02 06:14:36;;;;;;;;;;;;;;;22.03;55.04;95345.13;6244600;28;19921;-71
2023/07/02 06:17:42;;;;;;;;;;;;;;;22.18;55.06;95349.25;6244660;28;19921;-70
2023/07/02 06:20:46;;;;;;;;;;;;;;;22.67;54.62;95357.75;6244879;28;19925;-71
2023/07/02 06:23:50;;;;;;;;;;;;;;;23.24;53.68;95364.16;6248104;28;19921;-70
2023/07/02 06:27:02;;;;;;;;;;;;;;;23.58;52.81;95367.44;6249044;28;19961;-71
2023/07/02 06:30:05;;;;;;;;;;;;;;;24.46;51.34;95365.69;6248773;28;19921;-71
2023/07/02 06:33:08;;;;;;;;;;;;;;;24.87;50.26;95373.09;6247937;28;20283;-70
2023/07/02 06:36:13;;;;;;;;;;;;;;;24.94;49.70;95373.84;6231549;28;19920;-70
2023/07/02 06:39:20;;;;;;;;;;;;;;;25.29;49.35;95365.13;6248375;28;20406;-71
2023/07/02 06:42:22;;;;;;;;;;;;;;;25.80;48.48;95355.66;6247609;28;19920;-70
2023/07/02 06:45:25;;;;;;;;;;;;;;;26.02;47.06;95352.47;6248541;28;20390;-71
2023/07/02 06:48:26;;;;;;;;;;;;;;;25.74;47.84;95343.94;6248459;28;19928;-71
2023/07/02 06:51:34;;;;;;;;;;;;;;;26.19;46.53;95342.63;6248200;28;20011;-71
2023/07/02 06:54:37;;;;;;;;;;;;;;;26.23;46.53;95342.97;6247522;28;19925;-70
2023/07/02 06:57:43;;;;;;;;;;;;;;;27.11;44.73;95339.16;6248184;28;19924;-70
2023/07/02 07:00:46;;;;;;;;;;;;;;;28.57;41.53;95335.69;6246669;28;20298;-70
2023/07/02 07:03:51;;;;;;;;;;;;;;;30.35;38.62;95349.50;6230764;28;19921;-70
2023/07/02 07:06:55;;;;;;;;;;;;;;;33.51;34.13;95353.56;6247320;28;19921;-71
2023/07/02 07:10:01;;;;;;;;;;;;;;;34.75;31.12;95350.72;6247492;28;19921;-71
2023/07/02 07:13:06;;;;;;;;;;;;;;;36.31;29.04;95349.97;6246957;28;20303;-71
2023/07/02 07:16:07;;;;;;;;;;;;;;;37.03;26.50;95344.88;6247891;28;20391;-70
2023/07/02 07:19:10;;;;;;;;;;;;;;;36.22;27.10;95349.88;6247095;28;19921;-71
2023/07/02 07:22:15;;;;;;;;;;;;;;;34.37;29.45;95332.22;6246389;28;20294;-70
2023/07/02 07:25:19;;;;;;;;;;;;;;;32.99;31.58;95335.84;6247519;28;19964;-70
2023/07/02 07:28:23;;;;;;;;;;;;;;;32.08;33.21;95336.81;6247455;28;19966;-70
2023/07/02 07:31:26;;;;;;;;;;;;;;;31.42;33.79;95345.69;6246668;28;20322;-70
2023/07/02 07:34:27;;;;;;;;;;;;;;;30.69;35.26;95343.72;6246683;28;19920;-71
2023/07/02 07:37:31;;;;;;;;;;;;;;;29.68;37.01;95339.19;6246905;28;19939;-71
2023/07/02 07:40:37;;;;;;;;;;;;;;;29.09;38.53;95343.41;6247011;28;19929;-71
2023/07/02 07:43:40;;;;;;;;;;;;;;;28.72;39.60;95334.28;6228953;28;19951;-71
2023/07/02 07:46:44;;;;;;;;;;;;;;;28.70;39.80;95333.69;6247117;28;20387;-70
2023/07/02 07:49:45;;;;;;;;;;;;;;;28.77;39.93;95339.75;6246827;28;19925;-71
2023/07/02 07:52:46;;;;;;;;;;;;;;;28.93;39.20;95349.72;6246853;28;19924;-71
2023/07/02 07:55:49;;;;;;;;;;;;;;;29.06;39.15;95343.91;6246879;28;19920;-71
2023/07/02 07:58:51;;;;;;;;;;;;;;;29.02;39.31;95345.47;6246370;28;19928;-71
2023/07/02 08:01:54;;;;;;;;;;;;;;;29.24;39.20;95344.66;6246615;28;19916;-70
2023/07/02 08:05:00;;;;;;;;;;;;;;;29.06;40.06;95349.34;6246713;28;19925;-70
2023/07/02 08:08:01;;;;;;;;;;;;;;;28.80;40.35;95339.25;6246599;28;19935;-72
2023/07/02 08:11:05;;;;;;;;;;;;;;;29.11;39.35;95351.28;6246406;28;19924;-71
2023/07/02 08:14:06;;;;;;;;;;;;;;;29.49;38.41;95358.47;6246240;28;19921;-70
2023/07/02 08:17:12;;;;;;;;;;;;;;;29.83;37.81;95357.47;6246368;28;19921;-70
2023/07/02 08:20:14;;;;;;;;;;;;;;;29.90;37.67;95356.19;6246203;28;20019;-71
2023/07/02 08:23:15;;;;;;;;;;;;;;;30.06;37.44;95361.72;6246292;28;19931;-70
2023/07/02 08:26:18;;;;;;;;;;;;;;;29.53;37.89;95358.78;6228802;28;19921;-70
2023/07/02 08:29:20;;;;;;;;;;;;;;;28.86;39.00;95357.19;6228119;28;20502;-71
2023/07/02 08:32:23;;;;;;;;;;;;;;;28.87;38.63;95366.94;6245664;28;20306;-71
2023/07/02 08:35:25;;;;;;;;;;;;;;;29.28;37.82;95367.47;6245129;28;19943;-70
2023/07/02 08:38:27;;;;;;;;;;;;;;;30.19;36.25;95366.72;6244764;28;20012;-71
2023/07/02 08:41:41;;;;;;;;;;;;;;;31.04;34.43;95353.16;6245724;28;19920;-70
2023/07/02 08:44:48;;;;;;;;;;;;;;;31.86;33.26;95361.53;6245405;28;20334;-71
2023/07/02 08:47:50;;;;;;;;;;;;;;;33.14;31.05;95364.13;6245616;28;19921;-71
2023/07/02 08:50:54;;;;;;;;;;;;;;;33.75;30.72;95374.72;6245051;28;19920;-70
2023/07/02 08:53:58;;;;;;;;;;;;;;;34.30;30.05;95364.50;6245747;28;19921;-71
2023/07/02 08:57:04;;;;;;;;;;;;;;;35.07;28.54;95369.22;6244880;28;19943;-71
2023/07/02 09:00:08;;;;;;;;;;;;;;;34.38;28.75;95361.16;6244850;28;19931;-70
2023/07/02 09:03:14;;;;;;;;;;;;;;;34.36;29.45;95352.44;6228314;28;19925;-71
2023/07/02 09:06:21;;;;;;;;;;;;;;;34.40;28.39;95355.41;6245259;28;20026;-70
2023/07/02 09:09:24;;;;;;;;;;;;;;;33.22;30.17;95355.38;6244328;28;19925;-70
2023/07/02 09:12:29;;;;;;;;;;;;;;;32.28;31.87;95358.56;6244829;28;19925;-71
2023/07/02 09:15:39;;;;;;;;;;;;;;;32.03;32.16;95362.09;6245201;28;19920;-71
2023/07/02 09:18:42;;;;;;;;;;;;;;;32.12;32.51;95363.19;6244669;28;19921;-71
2023/07/02 09:21:44;;;;;;;;;;;;;;;32.51;31.58;95362.66;6244630;28;19920;-71
2023/07/02 09:24:53;;;;;;;;;;;;;;;32.52;31.67;95356.09;6227740;28;20023;-70
2023/07/02 09:27:57;;;;;;;;;;;;;;;32.15;32.17;95364.56;6244850;28;19921;-70
2023/07/02 09:30:59;;;;;;;;;;;;;;;31.70;32.31;95353.34;6244922;28;19928;-72
2023/07/02 09:34:03;;;;;;;;;;;;;;;30.86;33.57;95355.25;6244995;28;19921;-70
2023/07/02 09:37:07;;;;;;;;;;;;;;;30.27;34.92;95360.84;6244476;28;19975;-70
2023/07/02 09:40:12;;;;;;;;;;;;;;;29.45;36.13;95356.53;6220420;28;19921;-70
2023/07/02 09:43:14;;;;;;;;;;;;;;;28.95;37.01;95358.38;6219586;28;19921;-70
2023/07/02 09:46:17;;;;;;;;;;;;;;;28.57;37.85;95357.34;6220625;28;19921;-71
2023/07/02 09:49:22;;;;;;;;;;;;;;;28.48;38.28;95358.00;6220754;28;19921;-72
2023/07/02 09:52:23;;;;;;;;;;;;;;;28.67;37.52;95355.84;6220645;28;20074;-71
2023/07/02 09:55:25;;;;;;;;;;;;;;;28.73;38.28;95358.34;6219449;28;20322;-71
2023/07/02 09:58:27;;;;;;;;;;;;;;;27.97;39.15;95358.06;6223434;28;19974;-71
2023/07/02 10:01:33;;;;;;;;;;;;;;;27.67;40.05;95345.63;6207994;28;19921;-71
2023/07/02 10:04:42;;;;;;;;;;;;;;;27.81;39.68;95358.88;6224975;28;19921;-72
2023/07/02 10:07:45;;;;;;;;;;;;;;;28.25;38.60;95342.78;6224772;28;19921;-70
2023/07/02 10:10:49;;;;;;;;;;;;;;;28.64;37.91;95357.97;6224992;28;19925;-70
2023/07/02 10:13:59;;;;;;;;;;;;;;;28.93;37.67;95355.13;6224595;28;20279;-71
2023/07/02 10:17:03;;;;;;;;;;;;;;;29.12;37.04;95361.03;6207702;28;19921;-71
2023/07/02 10:20:16;;;;;;;;;;;;;;;28.83;37.76;95358.50;6224820;28;20087;-71
2023/07/02 10:23:18;;;;;;;;;;;;;;;28.40;38.96;95370.88;6224972;28;20276;-71
2023/07/02 10:26:21;;;;;;;;;;;;;;;28.19;39.67;95374.34;6205745;28;20322;-71
2023/07/02 10:29:26;;;;;;;;;;;;;;;27.52;40.64;95377.78;6224338;28;19922;-70
2023/07/02 10:32:29;;;;;;;;;;;;;;;26.61;42.36;95361.34;6224264;28;19921;-71
2023/07/02 10:35:34;;;;;;;;;;;;;;;26.02;43.69;95358.66;6224172;28;20342;-70
2023/07/02 10:38:37;;;;;;;;;;;;;;;25.58;45.20;95366.16;6235172;28;19925;-70
2023/07/02 10:41:41;;;;;;;;;;;;;;;25.00;46.71;95370.25;6247988;28;19921;-72
2023/07/02 10:44:50;;;;;;;;;;;;;;;24.44;47.58;95384.75;6248752;28;20407;-70
2023/07/02 10:47:53;;;;;;;;;;;;;;;24.23;48.21;95382.44;6248376;28;19921;-71
2023/07/02 10:50:54;;;;;;;;;;;;;;;24.28;47.52;95369.16;6248643;28;20203;-71
2023/07/02 10:54:04;;;;;;;;;;;;;;;24.73;46.82;95367.03;6248285;28;19928;-71
2023/07/02 10:57:07;;;;;;;;;;;;;;;25.13;46.01;95365.72;6247705;28;20088;-71
2023/07/02 11:00:09;;;;;;;;;;;;;;;25.36;45.18;95371.22;6230120;28;20387;-72
2023/07/02 11:03:19;;;;;;;;;;;;;;;25.35;45.21;95374.97;6247517;28;19928;-71
2023/07/02 11:06:23;;;;;;;;;;;;;;;25.54;44.85;95373.06;6247932;28;19921;-71
2023/07/02 11:09:26;;;;;;;;;;;;;;;26.11;43.84;95378.00;6247884;28;19925;-72
2023/07/02 11:12:31;;;;;;;;;;;;;;;26.63;42.29;95364.63;6246915;28;19925;-72
2023/07/02 11:15:35;;;;;;;;;;;;;;;27.17;41.93;95365.22;6246878;28;19920;-70
2023/07/02 11:18:36;;;;;;;;;;;;;;;28.37;39.86;95367.88;6247294;28;20413;-71
2023/07/02 11:21:38;;;;;;;;;;;;;;;29.73;37.81;95372.56;6247186;28;19930;-72
2023/07/02 11:24:40;;;;;;;;;;;;;;;31.38;35.30;95374.50;6246643;28;19924;-72
2023/07/02 11:27:46;;;;;;;;;;;;;;;32.37;34.21;95373.25;6246917;28;19991;-71
2023/07/02 11:30:49;;;;;;;;;;;;;;;32.44;33.99;95378.41;6247402;28;19924;-72
2023/07/02 11:33:52;;;;;;;;;;;;;;;32.73;33.58;95375.13;6247312;28;19920;-70
2023/07/02 11:36:54;;;;;;;;;;;;;;;32.88;33.58;95375.91;6246425;28;19921;-71
2023/07/02 11:39:59;;;;;;;;;;;;;;;32.83;34.03;95380.53;6246879;28;19921;-72
2023/07/02 11:43:00;;;;;;;;;;;;;;;33.51;33.50;95375.38;6246459;28;19921;-71
2023/07/02 11:46:03;;;;;;;;;;;;;;;34.06;31.89;95380.81;6246501;28;19921;-71
2023/07/02 11:49:10;;;;;;;;;;;;;;;34.34;32.35;95376.50;6230049;28;19921;-71
2023/07/02 11:52:14;;;;;;;;;;;;;;;34.52;32.15;95360.50;6246967;28;19921;-71
2023/07/02 11:55:18;;;;;;;;;;;;;;;34.49;32.17;95361.06;6246979;28;19940;-70
2023/07/02 11:58:20;;;;;;;;;;;;;;;34.34;32.28;95364.72;6246496;28;20326;-71
2023/07/02 12:01:22;;;;;;;;;;;;;;;34.52;31.89;95360.50;6245848;28;19925;-72
2023/07/02 12:04:24;;;;;;;;;;;;;;;34.43;31.22;95357.56;6228816;28;19921;-72
2023/07/02 12:07:27;;;;;;;;;;;;;;;33.70;31.36;95356.47;6246627;28;20011;-71
2023/07/02 12:10:34;;;;;;;;;;;;;;;33.50;31.65;95362.03;6246538;28;20070;-71
2023/07/02 12:13:38;;;;;;;;;;;;;;;33.66;28.32;95343.69;6246439;28;19921;-72
2023/07/02 12:16:41;;;;;;;;;;;;;;;32.17;30.32;95352.31;6246377;28;19921;-71
2023/07/02 12:19:44;;;;;;;;;;;;;;;31.48;29.92;95344.59;6245521;28;19983;-72
2023/07/02 12:22:48;;;;;;;;;;;;;;;31.20;30.05;95343.97;6245875;28;19929;-72
2023/07/02 12:25:49;;;;;;;;;;;;;;;31.14;30.04;95347.75;6245836;28;19928;-71
2023/07/02 12:28:52;;;;;;;;;;;;;;;30.91;30.19;95340.84;6246117;28;19921;-72
2023/07/02 12:31:55;;;;;;;;;;;;;;;30.27;30.56;95352.69;6245998;28;20306;-72
2023/07/02 12:34:59;;;;;;;;;;;;;;;30.20;30.49;95342.06;6246037;28;19921;-73
2023/07/02 12:38:00;;;;;;;;;;;;;;;30.04;30.83;95364.72;6245687;28;20059;-72
2023/07/02 12:41:01;;;;;;;;;;;;;;;29.85;30.71;95349.91;6245506;28;19921;-71
2023/07/02 12:44:04;;;;;;;;;;;;;;;29.47;31.12;95348.94;6245676;28;19921;-72
2023/07/02 12:47:05;;;;;;;;;;;;;;;29.00;31.76;95350.31;6245104;28;19928;-71
2023/07/02 12:50:09;;;;;;;;;;;;;;;29.01;31.60;95349.25;6228481;28;20349;-71
2023/07/02 12:53:12;;;;;;;;;;;;;;;28.75;31.82;95347.28;6245090;28;19921;-71
2023/07/02 12:56:14;;;;;;;;;;;;;;;28.50;32.18;95340.47;6245323;28;20050;-71
2023/07/02 12:59:17;;;;;;;;;;;;;;;28.17;32.71;95335.91;6245173;28;19920;-72
2023/07/02 13:02:25;;;;;;;;;;;;;;;28.00;32.78;95344.03;6245053;28;19947;-73
2023/07/02 13:05:26;;;;;;;;;;;;;;;28.01;32.41;95353.78;6245193;28;19928;-72
2023/07/02 13:08:32;;;;;;;;;;;;;;;27.55;32.96;95344.88;6245152;28;20422;-71
2023/07/02 13:11:33;;;;;;;;;;;;;;;27.57;33.12;95337.31;6245298;28;20401;-74
2023/07/02 13:14:36;;;;;;;;;;;;;;;27.72;32.53;95345.72;6244715;28;20016;-72
2023/07/02 13:17:38;;;;;;;;;;;;;;;27.41;32.40;95343.53;6244550;28;19921;-71
2023/07/02 13:20:39;;;;;;;;;;;;;;;27.13;32.73;95352.44;6244565;28;19921;-71
2023/07/02 13:23:40;;;;;;;;;;;;;;;27.05;33.53;95353.63;6244727;28;20427;-70
2023/07/02 13:26:41;;;;;;;;;;;;;;;26.78;33.87;95351.50;6244448;28;19928;-72
2023/07/02 13:29:43;;;;;;;;;;;;;;;26.92;34.14;95353.91;6244259;28;20343;-70
2023/07/02 13:32:44;;;;;;;;;;;;;;;26.79;34.19;95347.72;6246197;28;19921;-71
2023/07/02 13:35:47;;;;;;;;;;;;;;;26.99;34.12;95344.63;6249390;28;19921;-72
2023/07/02 13:38:48;;;;;;;;;;;;;;;26.71;34.51;95333.78;6249437;28;19968;-71
2023/07/02 13:41:50;;;;;;;;;;;;;;;26.43;34.66;95340.72;6249914;28;19932;-72
2023/07/02 13:44:53;;;;;;;;;;;;;;;26.53;34.64;95338.28;6249424;28;19921;-72
2023/07/02 13:47:56;;;;;;;;;;;;;;;26.35;34.58;95347.28;6249135;28;20448;-71
2023/07/02 13:50:59;;;;;;;;;;;;;;;26.25;34.02;95336.28;6248630;28;20382;-72
2023/07/02 13:54:02;;;;;;;;;;;;;;;26.04;34.85;95334.16;6249008;28;19932;-71
2023/07/02 13:57:09;;;;;;;;;;;;;;;26.12;34.53;95340.00;6232003;28;20348;-72
2023/07/02 14:00:10;;;;;;;;;;;;;;;25.86;34.82;95344.00;6248755;28;19921;-71
2023/07/02 14:03:16;;;;;;;;;;;;;;;25.89;34.73;95354.31;6249469;28;20317;-70
2023/07/02 14:06:22;;;;;;;;;;;;;;;26.02;34.77;95352.47;6249365;28;19921;-71
2023/07/02 14:09:26;;;;;;;;;;;;;;;25.75;35.17;95363.63;6248772;28;19921;-71
2023/07/02 14:12:29;;;;;;;;;;;;;;;25.77;35.00;95356.94;6230752;28;20004;-71
2023/07/02 14:15:35;;;;;;;;;;;;;;;25.88;34.73;95357.25;6249256;28;19924;-72
2023/07/02 14:18:37;;;;;;;;;;;;;;;25.80;35.12;95366.44;6248102;28;19920;-72
2023/07/02 14:21:41;;;;;;;;;;;;;;;25.77;35.23;95356.94;6248964;28;20007;-71
2023/07/02 14:24:42;;;;;;;;;;;;;;;25.57;35.67;95356.44;6248674;28;19920;-71
2023/07/02 14:27:48;;;;;;;;;;;;;;;25.60;35.46;95360.56;6248831;28;20015;-71
2023/07/02 14:30:55;;;;;;;;;;;;;;;25.50;35.73;95367.28;6248007;28;19928;-71
2023/07/02 14:33:59;;;;;;;;;;;;;;;25.51;35.35;95363.56;6247757;28;19928;-71
2023/07/02 14:37:03;;;;;;;;;;;;;;;25.54;35.39;95373.06;6247903;28;19928;-72
2023/07/02 14:40:04;;;;;;;;;;;;;;;25.38;35.68;95379.09;6248291;28;19921;-70
2023/07/02 14:43:08;;;;;;;;;;;;;;;25.27;35.58;95372.59;6247940;28;20004;-72
2023/07/02 14:46:09;;;;;;;;;;;;;;;25.27;35.85;95378.81;6248430;28;20063;-72
2023/07/02 14:49:12;;;;;;;;;;;;;;;25.07;36.51;95384.44;6248269;28;19921;-71
2023/07/02 14:52:14;;;;;;;;;;;;;;;25.10;36.83;95383.16;6230605;28;19921;-70
2023/07/02 14:55:15;;;;;;;;;;;;;;;25.06;36.99;95385.47;6247577;28;20000;-72
2023/07/02 14:58:21;;;;;;;;;;;;;;;24.73;37.14;95393.13;6248112;28;20023;-71
2023/07/02 15:01:25;;;;;;;;;;;;;;;24.42;38.15;95400.22;6247810;28;20410;-72
2023/07/02 15:04:27;;;;;;;;;;;;;;;24.27;38.52;95399.78;6247176;28;19921;-71
2023/07/02 15:07:31;;;;;;;;;;;;;;;24.14;38.41;95401.53;6230209;28;19928;-72
2023/07/02 15:10:38;;;;;;;;;;;;;;;24.00;39.56;95402.69;6247991;28;19920;-71
2023/07/02 15:13:49;;;;;;;;;;;;;;;24.19;39.63;95407.06;6247839;28;20306;-72
2023/07/02 15:16:51;;;;;;;;;;;;;;;24.15;40.14;95408.56;6246982;28;19943;-70
2023/07/02 15:19:55;;;;;;;;;;;;;;;24.01;40.63;95411.59;6247709;28;19917;-71
2023/07/02 15:22:57;;;;;;;;;;;;;;;23.74;41.07;95417.13;6247483;28;19997;-70
2023/07/02 15:26:01;;;;;;;;;;;;;;;23.53;41.67;95415.59;6246629;28;19928;-71
2023/07/02 15:29:05;;;;;;;;;;;;;;;23.47;41.95;95427.19;6228996;28;19921;-72
2023/07/02 15:32:06;;;;;;;;;;;;;;;23.31;42.85;95420.47;6246925;28;19924;-71
2023/07/02 15:35:07;;;;;;;;;;;;;;;23.08;42.97;95429.03;6247216;28;19921;-71
2023/07/02 15:38:10;;;;;;;;;;;;;;;23.02;43.47;95427.22;6247151;28;19932;-71
2023/07/02 15:41:13;;;;;;;;;;;;;;;23.16;43.53;95426.13;6246741;28;20444;-71
2023/07/02 15:44:18;;;;;;;;;;;;;;;22.74;43.75;95428.28;6247124;28;20393;-72
2023/07/02 15:47:24;;;;;;;;;;;;;;;22.67;44.39;95434.69;6246795;28;19924;-72
2023/07/02 15:50:27;;;;;;;;;;;;;;;22.32;45.16;95430.44;6247098;28;19928;-71
2023/07/02 15:53:31;;;;;;;;;;;;;;;22.31;45.71;95434.16;6245898;28;20066;-72
2023/07/02 15:56:33;;;;;;;;;;;;;;;21.94;46.31;95433.72;6245767;28;20298;-72